createdAt,value
2023-02-11T00:00:26.942Z,66.50
2023-02-11T00:01:26.928Z,66.50
2023-02-11T00:02:26.988Z,66.70
2023-02-11T00:03:26.942Z,66.46
2023-02-11T00:04:26.888Z,66.59
2023-02-11T00:05:26.893Z,66.54
2023-02-11T00:06:26.858Z,66.47
2023-02-11T00:07:26.863Z,66.45
2023-02-11T00:08:26.829Z,66.50
2023-02-11T00:09:26.832Z,66.48
2023-02-11T00:10:26.811Z,66.51
2023-02-11T00:11:26.861Z,66.74
2023-02-11T00:12:26.793Z,66.90
2023-02-11T00:13:26.765Z,66.73
2023-02-11T00:14:26.793Z,66.80
2023-02-11T00:15:26.748Z,66.87
2023-02-11T00:16:26.818Z,66.94
2023-02-11T00:17:26.728Z,66.80
2023-02-11T00:18:26.736Z,66.73
2023-02-11T00:19:26.718Z,66.74
2023-02-11T00:20:26.691Z,66.91
2023-02-11T00:21:26.685Z,66.55
2023-02-11T00:22:26.661Z,66.45
2023-02-11T00:23:26.651Z,66.62
2023-02-11T00:24:26.640Z,66.63
2023-02-11T00:25:26.621Z,66.70
2023-02-11T00:26:26.606Z,66.67
2023-02-11T00:27:26.595Z,66.41
2023-02-11T00:28:26.666Z,66.69
2023-02-11T00:29:26.740Z,66.67
2023-02-11T00:30:26.585Z,66.60
2023-02-11T00:31:26.748Z,66.62
2023-02-11T00:32:26.560Z,66.29
2023-02-11T00:33:26.530Z,66.65
2023-02-11T00:34:26.541Z,66.57
2023-02-11T00:35:26.495Z,66.37
2023-02-11T00:36:26.480Z,66.44
2023-02-11T00:37:26.471Z,66.26
2023-02-11T00:38:26.455Z,66.23
2023-02-11T00:39:26.468Z,66.28
2023-02-11T00:40:26.488Z,66.31
2023-02-11T00:41:26.432Z,66.30
2023-02-11T00:42:26.412Z,66.23
2023-02-11T00:43:26.389Z,66.12
2023-02-11T00:44:26.375Z,66.01
2023-02-11T00:45:26.382Z,66.16
2023-02-11T00:46:26.431Z,66.13
2023-02-11T00:47:26.342Z,66.15
2023-02-11T00:48:26.335Z,66.34
2023-02-11T00:49:26.322Z,66.27
2023-02-11T00:50:26.315Z,66.29
2023-02-11T00:51:26.323Z,66.37
2023-02-11T00:52:26.272Z,66.40
2023-02-11T00:53:26.276Z,66.21
2023-02-11T00:54:28.423Z,66.26
2023-02-11T00:55:26.285Z,66.49
2023-02-11T00:56:26.236Z,66.46
2023-02-11T00:57:26.218Z,66.40
2023-02-11T00:58:26.199Z,66.22
2023-02-11T00:59:26.192Z,66.36
2023-02-11T01:00:26.177Z,66.79
2023-02-11T01:01:26.329Z,66.80
2023-02-11T01:02:26.159Z,66.47
2023-02-11T01:03:26.209Z,66.17
2023-02-11T01:04:26.123Z,66.13
2023-02-11T01:05:26.137Z,66.32
2023-02-11T01:06:26.115Z,66.63
2023-02-11T01:07:26.098Z,66.80
2023-02-11T01:08:26.111Z,66.90
2023-02-11T01:09:26.121Z,66.78
2023-02-11T01:10:26.049Z,66.90
2023-02-11T01:11:26.070Z,66.86
2023-02-11T01:12:26.066Z,67.03
2023-02-11T01:13:26.066Z,67.04
2023-02-11T01:14:26.007Z,67.02
2023-02-11T01:15:26.007Z,66.93
2023-02-11T01:16:26.037Z,66.99
2023-02-11T01:17:26.045Z,67.09
2023-02-11T01:18:26.028Z,67.18
2023-02-11T01:19:25.951Z,67.24
2023-02-11T01:20:25.945Z,67.10
2023-02-11T01:21:25.936Z,66.98
2023-02-11T01:22:25.908Z,66.97
2023-02-11T01:23:25.902Z,67.03
2023-02-11T01:24:25.887Z,67.11
2023-02-11T01:25:25.877Z,67.20
2023-02-11T01:26:25.880Z,67.20
2023-02-11T01:27:25.868Z,67.11
2023-02-11T01:28:25.901Z,67.16
2023-02-11T01:29:25.834Z,67.18
2023-02-11T01:30:25.834Z,67.10
2023-02-11T01:31:25.919Z,67.00
2023-02-11T01:32:25.778Z,66.86
2023-02-11T01:33:25.801Z,66.91
2023-02-11T01:34:25.771Z,66.75
2023-02-11T01:35:25.748Z,66.79
2023-02-11T01:36:25.756Z,66.80
2023-02-11T01:37:25.720Z,66.65
2023-02-11T01:38:25.726Z,66.78
2023-02-11T01:39:25.696Z,66.99
2023-02-11T01:40:25.701Z,67.09
2023-02-11T01:41:25.680Z,67.07
2023-02-11T01:42:25.655Z,67.11
2023-02-11T01:43:25.653Z,67.06
2023-02-11T01:44:25.647Z,66.99
2023-02-11T01:45:25.624Z,67.09
2023-02-11T01:46:25.714Z,67.03
2023-02-11T01:47:25.592Z,66.83
2023-02-11T01:48:25.586Z,66.87
2023-02-11T01:49:25.752Z,66.91
2023-02-11T01:50:25.558Z,66.79
2023-02-11T01:51:25.590Z,66.77
2023-02-11T01:52:25.550Z,66.74
2023-02-11T01:53:25.528Z,66.82
2023-02-11T01:54:25.516Z,66.57
2023-02-11T01:55:25.565Z,66.65
2023-02-11T01:56:25.498Z,66.73
2023-02-11T01:57:25.479Z,66.48
2023-02-11T01:58:25.494Z,66.57
2023-02-11T01:59:25.454Z,66.47
2023-02-11T02:00:25.428Z,66.40
2023-02-11T02:01:25.432Z,66.61
2023-02-11T02:02:25.424Z,66.66
2023-02-11T02:03:25.419Z,66.75
2023-02-11T02:04:25.376Z,66.42
2023-02-11T02:05:25.403Z,66.33
2023-02-11T02:06:25.364Z,66.55
2023-02-11T02:07:25.353Z,66.76
2023-02-11T02:08:26.159Z,66.84
2023-02-11T02:09:25.324Z,66.84
2023-02-11T02:10:25.364Z,67.01
2023-02-11T02:11:25.300Z,67.04
2023-02-11T02:12:25.292Z,67.11
2023-02-11T02:13:25.297Z,67.09
2023-02-11T02:14:25.253Z,67.09
2023-02-11T02:15:25.262Z,67.01
2023-02-11T02:16:25.272Z,66.84
2023-02-11T02:17:25.230Z,66.95
2023-02-11T02:18:25.224Z,66.68
2023-02-11T02:19:25.192Z,66.50
2023-02-11T02:20:25.189Z,66.68
2023-02-11T02:21:25.162Z,66.94
2023-02-11T02:22:25.149Z,67.07
2023-02-11T02:23:25.179Z,67.27
2023-02-11T02:24:25.155Z,67.37
2023-02-11T02:25:25.130Z,67.28
2023-02-11T02:26:25.101Z,67.35
2023-02-11T02:27:25.096Z,67.37
2023-02-11T02:28:25.173Z,67.45
2023-02-11T02:29:25.107Z,67.38
2023-02-11T02:30:25.066Z,67.53
2023-02-11T02:31:25.077Z,67.53
2023-02-11T02:32:25.020Z,67.55
2023-02-11T02:33:25.028Z,67.56
2023-02-11T02:34:25.009Z,67.37
2023-02-11T02:35:25.016Z,67.49
2023-02-11T02:36:24.969Z,67.50
2023-02-11T02:37:24.969Z,67.40
2023-02-11T02:38:24.955Z,67.27
2023-02-11T02:39:24.946Z,67.37
2023-02-11T02:40:24.962Z,67.48
2023-02-11T02:41:24.912Z,67.42
2023-02-11T02:42:24.899Z,67.54
2023-02-11T02:43:24.894Z,67.50
2023-02-11T02:44:24.870Z,67.49
2023-02-11T02:45:24.903Z,67.67
2023-02-11T02:46:24.916Z,67.66
2023-02-11T02:47:24.848Z,67.84
2023-02-11T02:48:24.836Z,67.91
2023-02-11T02:49:24.825Z,67.87
2023-02-11T02:50:24.828Z,67.93
2023-02-11T02:51:25.696Z,67.75
2023-02-11T02:52:24.772Z,67.82
2023-02-11T02:53:24.796Z,68.07
2023-02-11T02:54:24.758Z,68.02
2023-02-11T02:55:24.742Z,68.09
2023-02-11T02:56:24.724Z,68.02
2023-02-11T02:57:24.715Z,68.03
2023-02-11T02:58:24.704Z,67.91
2023-02-11T02:59:24.698Z,67.76
2023-02-11T03:00:24.676Z,67.88
2023-02-11T03:01:24.663Z,67.86
2023-02-11T03:02:24.679Z,67.80
2023-02-11T03:03:24.677Z,67.83
2023-02-11T03:04:24.627Z,67.99
2023-02-11T03:05:24.630Z,68.15
2023-02-11T03:06:24.616Z,68.45
2023-02-11T03:07:24.609Z,68.38
2023-02-11T03:08:24.581Z,68.25
2023-02-11T03:09:24.612Z,68.22
2023-02-11T03:10:24.545Z,68.26
2023-02-11T03:11:24.550Z,68.15
2023-02-11T03:12:24.522Z,68.19
2023-02-11T03:13:24.510Z,68.21
2023-02-11T03:14:24.535Z,68.13
2023-02-11T03:15:24.503Z,68.12
2023-02-11T03:16:24.565Z,67.97
2023-02-11T03:17:24.506Z,67.93
2023-02-11T03:18:24.449Z,67.95
2023-02-11T03:19:24.436Z,67.73
2023-02-11T03:20:24.448Z,67.74
2023-02-11T03:21:24.412Z,67.97
2023-02-11T03:22:24.425Z,67.92
2023-02-11T03:23:24.420Z,67.82
2023-02-11T03:24:24.395Z,67.59
2023-02-11T03:25:24.393Z,67.45
2023-02-11T03:26:24.386Z,67.29
2023-02-11T03:27:24.386Z,67.45
2023-02-11T03:28:24.403Z,67.69
2023-02-11T03:29:24.361Z,67.85
2023-02-11T03:30:24.334Z,67.54
2023-02-11T03:31:24.497Z,67.19
2023-02-11T03:32:24.345Z,66.80
2023-02-11T03:33:24.291Z,66.76
2023-02-11T03:34:24.269Z,66.94
2023-02-11T03:35:24.276Z,66.85
2023-02-11T03:36:24.267Z,66.74
2023-02-11T03:37:24.243Z,66.75
2023-02-11T03:38:24.234Z,66.64
2023-02-11T03:39:24.205Z,66.53
2023-02-11T03:40:24.182Z,66.50
2023-02-11T03:41:24.196Z,66.60
2023-02-11T03:42:24.144Z,66.30
2023-02-11T03:43:24.153Z,66.20
2023-02-11T03:44:24.132Z,66.14
2023-02-11T03:45:24.122Z,66.09
2023-02-11T03:46:24.188Z,66.25
2023-02-11T03:47:25.048Z,66.49
2023-02-11T03:48:24.112Z,66.65
2023-02-11T03:49:24.102Z,66.73
2023-02-11T03:50:24.091Z,66.35
2023-02-11T03:51:24.047Z,66.07
2023-02-11T03:52:24.024Z,65.90
2023-02-11T03:53:24.011Z,65.64
2023-02-11T03:54:24.009Z,65.62
2023-02-11T03:55:23.987Z,65.58
2023-02-11T03:56:23.987Z,65.61
2023-02-11T03:57:23.980Z,65.83
2023-02-11T03:58:23.952Z,65.94
2023-02-11T03:59:23.962Z,66.02
2023-02-11T04:00:23.920Z,65.87
2023-02-11T04:01:24.049Z,65.89
2023-02-11T04:02:23.902Z,65.88
2023-02-11T04:03:23.920Z,65.52
2023-02-11T04:04:23.908Z,65.37
2023-02-11T04:05:23.861Z,65.07
2023-02-11T04:06:23.888Z,64.93
2023-02-11T04:07:23.857Z,65.14
2023-02-11T04:08:23.835Z,64.93
2023-02-11T04:09:23.814Z,64.93
2023-02-11T04:10:23.834Z,65.10
2023-02-11T04:11:23.809Z,64.99
2023-02-11T04:12:23.797Z,65.04
2023-02-11T04:13:30.352Z,64.95
2023-02-11T04:14:23.758Z,64.97
2023-02-11T04:15:23.757Z,64.74
2023-02-11T04:16:23.791Z,64.87
2023-02-11T04:17:23.715Z,65.19
2023-02-11T04:18:23.719Z,65.36
2023-02-11T04:19:23.760Z,65.17
2023-02-11T04:20:23.718Z,64.91
2023-02-11T04:21:23.719Z,65.05
2023-02-11T04:22:23.693Z,65.42
2023-02-11T04:23:23.700Z,65.46
2023-02-11T04:24:23.684Z,65.29
2023-02-11T04:25:23.673Z,65.16
2023-02-11T04:26:23.610Z,65.08
2023-02-11T04:27:23.614Z,65.09
2023-02-11T04:28:23.659Z,65.22
2023-02-11T04:29:23.570Z,65.03
2023-02-11T04:30:23.551Z,64.96
2023-02-11T04:31:23.712Z,64.97
2023-02-11T04:32:23.532Z,65.11
2023-02-11T04:33:23.533Z,64.79
2023-02-11T04:34:23.522Z,64.75
2023-02-11T04:35:23.531Z,64.83
2023-02-11T04:36:23.486Z,64.76
2023-02-11T04:37:23.482Z,64.69
2023-02-11T04:38:23.480Z,64.53
2023-02-11T04:39:23.486Z,64.73
2023-02-11T04:40:23.478Z,64.66
2023-02-11T04:41:23.465Z,64.64
2023-02-11T04:42:23.419Z,64.82
2023-02-11T04:43:23.403Z,64.44
2023-02-11T04:44:23.382Z,64.62
2023-02-11T04:45:23.375Z,64.50
2023-02-11T04:46:23.461Z,64.69
2023-02-11T04:47:23.393Z,65.08
2023-02-11T04:48:23.362Z,64.84
2023-02-11T04:49:23.330Z,64.72
2023-02-11T04:50:23.325Z,64.49
2023-02-11T04:51:23.290Z,64.49
2023-02-11T04:52:23.295Z,64.25
2023-02-11T04:53:23.292Z,64.17
2023-02-11T04:54:23.260Z,64.44
2023-02-11T04:55:23.254Z,64.65
2023-02-11T04:56:23.236Z,64.28
2023-02-11T04:57:23.253Z,64.18
2023-02-11T04:58:23.239Z,64.24
2023-02-11T04:59:23.210Z,63.90
2023-02-11T05:00:23.279Z,63.97
2023-02-11T05:01:23.290Z,63.99
2023-02-11T05:02:23.169Z,63.99
2023-02-11T05:03:23.168Z,63.94
2023-02-11T05:04:23.227Z,63.91
2023-02-11T05:05:23.127Z,64.28
2023-02-11T05:06:23.169Z,64.28
2023-02-11T05:07:23.112Z,64.35
2023-02-11T05:08:23.103Z,64.65
2023-02-11T05:09:23.066Z,64.64
2023-02-11T05:10:23.057Z,64.56
2023-02-11T05:11:23.082Z,65.01
2023-02-11T05:12:23.064Z,64.99
2023-02-11T05:13:23.030Z,64.65
2023-02-11T05:14:23.017Z,64.44
2023-02-11T05:15:23.001Z,64.42
2023-02-11T05:16:23.066Z,64.89
2023-02-11T05:17:22.991Z,64.98
2023-02-11T05:18:23.016Z,65.13
2023-02-11T05:19:22.940Z,64.94
2023-02-11T05:20:22.937Z,64.72
2023-02-11T05:21:22.921Z,64.77
2023-02-11T05:22:22.940Z,64.65
2023-02-11T05:23:22.898Z,64.71
2023-02-11T05:24:22.931Z,65.03
2023-02-11T05:25:22.954Z,65.44
2023-02-11T05:26:22.895Z,65.61
2023-02-11T05:27:22.864Z,65.81
2023-02-11T05:28:22.862Z,65.80
2023-02-11T05:29:22.850Z,65.89
2023-02-11T05:30:22.840Z,65.92
2023-02-11T05:31:22.798Z,65.93
2023-02-11T05:32:22.781Z,65.92
2023-02-11T05:33:22.795Z,66.34
2023-02-11T05:34:22.826Z,66.17
2023-02-11T05:35:22.752Z,66.07
2023-02-11T05:36:22.747Z,66.04
2023-02-11T05:37:22.755Z,65.94
2023-02-11T05:38:22.731Z,66.03
2023-02-11T05:39:22.712Z,66.10
2023-02-11T05:40:22.686Z,66.19
2023-02-11T05:41:22.687Z,66.38
2023-02-11T05:42:22.657Z,66.65
2023-02-11T05:43:22.648Z,66.70
2023-02-11T05:44:22.670Z,66.82
2023-02-11T05:45:22.621Z,66.92
2023-02-11T05:46:22.690Z,67.03
2023-02-11T05:47:22.608Z,67.06
2023-02-11T05:48:22.584Z,67.14
2023-02-11T05:49:22.641Z,67.38
2023-02-11T05:50:22.557Z,67.44
2023-02-11T05:51:22.546Z,67.70
2023-02-11T05:52:22.551Z,67.82
2023-02-11T05:53:22.535Z,67.76
2023-02-11T05:54:22.522Z,67.90
2023-02-11T05:55:22.492Z,68.01
2023-02-11T05:56:22.541Z,68.10
2023-02-11T05:57:22.495Z,67.98
2023-02-11T05:58:22.471Z,67.93
2023-02-11T05:59:22.453Z,67.99
2023-02-11T06:00:22.478Z,68.13
2023-02-11T06:01:22.414Z,68.11
2023-02-11T06:02:22.527Z,68.15
2023-02-11T06:03:22.456Z,68.19
2023-02-11T06:04:22.437Z,68.25
2023-02-11T06:05:22.367Z,68.30
2023-02-11T06:06:22.360Z,68.43
2023-02-11T06:07:22.341Z,68.51
2023-02-11T06:08:22.364Z,68.62
2023-02-11T06:09:22.350Z,68.60
2023-02-11T06:10:22.378Z,68.39
2023-02-11T06:11:22.333Z,68.16
2023-02-11T06:12:22.284Z,68.04
2023-02-11T06:13:22.284Z,68.05
2023-02-11T06:14:22.279Z,68.23
2023-02-11T06:15:22.281Z,68.29
2023-02-11T06:16:22.343Z,68.30
2023-02-11T06:17:22.229Z,68.44
2023-02-11T06:18:22.252Z,68.28
2023-02-11T06:19:22.247Z,68.09
2023-02-11T06:20:22.211Z,68.12
2023-02-11T06:21:23.867Z,68.18
2023-02-11T06:22:22.208Z,68.19
2023-02-11T06:23:22.162Z,68.18
2023-02-11T06:24:44.308Z,68.05
2023-02-11T06:25:22.144Z,67.74
2023-02-11T06:26:22.116Z,67.50
2023-02-11T06:27:22.098Z,67.72
2023-02-11T06:28:22.152Z,67.79
2023-02-11T06:29:22.099Z,67.72
2023-02-11T06:30:22.081Z,67.67
2023-02-11T06:31:22.173Z,67.51
2023-02-11T06:32:42.288Z,67.37
2023-02-11T06:33:22.047Z,67.03
2023-02-11T06:34:22.042Z,67.04
2023-02-11T06:35:22.020Z,67.10
2023-02-11T06:36:22.005Z,66.73
2023-02-11T06:37:22.085Z,66.45
2023-02-11T06:38:21.957Z,66.41
2023-02-11T06:39:21.945Z,66.21
2023-02-11T06:40:21.939Z,66.12
2023-02-11T06:41:22.015Z,65.99
2023-02-11T06:42:21.921Z,65.78
2023-02-11T06:43:21.904Z,65.71
2023-02-11T06:44:21.903Z,65.71
2023-02-11T06:45:21.869Z,65.32
2023-02-11T06:46:21.930Z,65.11
2023-02-11T06:47:21.845Z,64.97
2023-02-11T06:48:21.837Z,64.89
2023-02-11T06:49:21.823Z,64.96
2023-02-11T06:50:21.816Z,64.57
2023-02-11T06:51:21.856Z,64.06
2023-02-11T06:52:21.788Z,63.52
2023-02-11T06:53:21.780Z,62.90
2023-02-11T06:54:21.786Z,62.99
2023-02-11T06:55:21.742Z,62.87
2023-02-11T06:56:21.759Z,62.90
2023-02-11T06:57:21.730Z,62.93
2023-02-11T06:58:21.724Z,63.10
2023-02-11T06:59:21.695Z,62.80
2023-02-11T07:00:21.683Z,62.51
2023-02-11T07:01:21.731Z,62.56
2023-02-11T07:02:21.678Z,62.54
2023-02-11T07:03:21.642Z,62.16
2023-02-11T07:04:21.642Z,62.06
2023-02-11T07:05:21.627Z,61.91
2023-02-11T07:06:21.650Z,61.64
2023-02-11T07:07:21.601Z,61.85
2023-02-11T07:08:21.599Z,61.91
2023-02-11T07:09:21.579Z,61.82
2023-02-11T07:10:21.603Z,61.79
2023-02-11T07:11:21.621Z,61.74
2023-02-11T07:12:21.548Z,61.83
2023-02-11T07:13:21.545Z,61.72
2023-02-11T07:14:21.530Z,61.69
2023-02-11T07:15:21.496Z,61.95
2023-02-11T07:16:21.575Z,61.57
2023-02-11T07:17:21.481Z,61.34
2023-02-11T07:18:21.492Z,61.46
2023-02-11T07:19:21.454Z,61.22
2023-02-11T07:20:21.489Z,61.14
2023-02-11T07:21:21.473Z,60.88
2023-02-11T07:22:21.423Z,60.52
2023-02-11T07:23:21.405Z,60.72
2023-02-11T07:24:21.402Z,60.83
2023-02-11T07:25:21.393Z,60.84
2023-02-11T07:26:21.372Z,60.83
2023-02-11T07:27:21.414Z,60.31
2023-02-11T07:28:21.531Z,60.67
2023-02-11T07:29:21.363Z,60.72
2023-02-11T07:30:21.334Z,60.50
2023-02-11T07:31:21.375Z,60.81
2023-02-11T07:32:21.311Z,60.88
2023-02-11T07:33:21.274Z,60.83
2023-02-11T07:34:21.341Z,60.84
2023-02-11T07:35:21.271Z,60.59
2023-02-11T07:36:21.255Z,60.47
2023-02-11T07:37:21.232Z,60.68
2023-02-11T07:38:21.238Z,60.78
2023-02-11T07:39:21.214Z,60.98
2023-02-11T07:40:21.188Z,61.21
2023-02-11T07:41:21.209Z,60.98
2023-02-11T07:42:21.172Z,61.19
2023-02-11T07:43:21.197Z,61.45
2023-02-11T07:44:21.139Z,61.45
2023-02-11T07:45:21.122Z,61.25
2023-02-11T07:46:21.148Z,61.26
2023-02-11T07:47:21.123Z,61.03
2023-02-11T07:48:21.097Z,60.89
2023-02-11T07:49:21.073Z,60.83
2023-02-11T07:50:21.081Z,60.94
2023-02-11T07:51:21.053Z,61.02
2023-02-11T07:52:21.060Z,60.95
2023-02-11T07:53:21.041Z,60.94
2023-02-11T07:54:21.045Z,60.69
2023-02-11T07:55:21.023Z,60.65
2023-02-11T07:56:21.068Z,60.74
2023-02-11T07:57:21.000Z,60.60
2023-02-11T07:58:20.977Z,60.77
2023-02-11T07:59:20.956Z,60.75
2023-02-11T08:00:21.316Z,60.75
2023-02-11T08:01:20.995Z,60.90
2023-02-11T08:02:20.977Z,60.87
2023-02-11T08:03:20.976Z,61.11
2023-02-11T08:04:21.024Z,61.13
2023-02-11T08:05:20.935Z,60.99
2023-02-11T08:06:20.890Z,60.94
2023-02-11T08:07:20.880Z,60.81
2023-02-11T08:08:20.857Z,60.63
2023-02-11T08:09:20.823Z,60.47
2023-02-11T08:10:20.835Z,60.46
2023-02-11T08:11:20.797Z,60.44
2023-02-11T08:12:20.818Z,61.04
2023-02-11T08:13:20.809Z,61.01
2023-02-11T08:14:20.762Z,60.74
2023-02-11T08:15:20.814Z,60.59
2023-02-11T08:16:20.865Z,60.83
2023-02-11T08:17:20.767Z,60.89
2023-02-11T08:18:20.725Z,61.23
2023-02-11T08:19:20.700Z,61.04
2023-02-11T08:20:20.738Z,61.13
2023-02-11T08:21:20.754Z,60.85
2023-02-11T08:22:20.671Z,61.05
2023-02-11T08:23:20.644Z,61.31
2023-02-11T08:24:20.647Z,61.37
2023-02-11T08:25:20.626Z,61.27
2023-02-11T08:26:20.658Z,61.08
2023-02-11T08:27:20.608Z,60.87
2023-02-11T08:28:20.649Z,60.79
2023-02-11T08:29:20.574Z,60.69
2023-02-11T08:30:20.578Z,60.86
2023-02-11T08:31:20.754Z,60.95
2023-02-11T08:32:20.570Z,60.78
2023-02-11T08:33:20.517Z,60.58
2023-02-11T08:34:20.543Z,60.45
2023-02-11T08:35:20.511Z,60.65
2023-02-11T08:36:20.488Z,60.64
2023-02-11T08:37:20.470Z,60.68
2023-02-11T08:38:20.465Z,60.60
2023-02-11T08:39:21.032Z,60.32
2023-02-11T08:40:20.435Z,60.48
2023-02-11T08:41:20.420Z,60.63
2023-02-11T08:42:20.424Z,60.79
2023-02-11T08:43:20.395Z,60.80
2023-02-11T08:44:20.417Z,60.44
2023-02-11T08:45:20.386Z,60.13
2023-02-11T08:46:20.492Z,60.38
2023-02-11T08:47:20.348Z,60.45
2023-02-11T08:48:20.335Z,60.64
2023-02-11T08:49:20.332Z,60.73
2023-02-11T08:50:20.319Z,60.52
2023-02-11T08:51:20.304Z,60.33
2023-02-11T08:52:20.291Z,60.40
2023-02-11T08:53:20.492Z,60.28
2023-02-11T08:54:20.312Z,60.33
2023-02-11T08:55:20.250Z,60.54
2023-02-11T08:56:20.235Z,60.33
2023-02-11T08:57:20.223Z,60.33
2023-02-11T08:58:20.239Z,60.01
2023-02-11T08:59:20.226Z,60.13
2023-02-11T09:00:20.181Z,60.31
2023-02-11T09:01:22.734Z,60.49
2023-02-11T09:02:20.244Z,60.55
2023-02-11T09:03:20.153Z,60.71
2023-02-11T09:04:20.164Z,60.61
2023-02-11T09:05:20.175Z,60.34
2023-02-11T09:06:20.156Z,60.00
2023-02-11T09:07:20.097Z,60.11
2023-02-11T09:08:20.096Z,59.99
2023-02-11T09:09:20.087Z,60.03
2023-02-11T09:10:20.058Z,60.09
2023-02-11T09:11:20.057Z,60.21
2023-02-11T09:12:20.054Z,60.05
2023-02-11T09:13:20.033Z,59.80
2023-02-11T09:14:20.021Z,59.90
2023-02-11T09:15:20.033Z,60.03
2023-02-11T09:16:19.998Z,60.05
2023-02-11T09:17:19.973Z,60.13
2023-02-11T09:18:20.012Z,59.81
2023-02-11T09:19:19.961Z,59.60
2023-02-11T09:20:19.953Z,59.87
2023-02-11T09:21:19.930Z,59.77
2023-02-11T09:22:19.906Z,59.54
2023-02-11T09:23:19.899Z,59.32
2023-02-11T09:24:19.891Z,59.21
2023-02-11T09:25:19.892Z,59.40
2023-02-11T09:26:19.859Z,59.36
2023-02-11T09:27:19.853Z,59.33
2023-02-11T09:28:19.861Z,59.26
2023-02-11T09:29:19.827Z,58.82
2023-02-11T09:30:19.812Z,58.67
2023-02-11T09:31:19.972Z,58.48
2023-02-11T09:32:19.787Z,58.25
2023-02-11T09:33:19.765Z,58.22
2023-02-11T09:34:19.771Z,58.52
2023-02-11T09:35:19.755Z,58.58
2023-02-11T09:36:19.745Z,58.77
2023-02-11T09:37:19.724Z,58.89
2023-02-11T09:38:19.717Z,58.85
2023-02-11T09:39:19.693Z,58.58
2023-02-11T09:40:19.712Z,58.45
2023-02-11T09:41:19.662Z,58.58
2023-02-11T09:42:19.652Z,58.66
2023-02-11T09:43:19.665Z,58.42
2023-02-11T09:44:19.631Z,58.37
2023-02-11T09:45:19.636Z,58.23
2023-02-11T09:46:19.648Z,58.24
2023-02-11T09:47:19.592Z,58.11
2023-02-11T09:48:19.575Z,58.16
2023-02-11T09:49:19.558Z,57.50
2023-02-11T09:50:19.568Z,58.15
2023-02-11T09:51:19.558Z,57.69
2023-02-11T09:52:19.532Z,57.78
2023-02-11T09:53:19.513Z,58.03
2023-02-11T09:54:19.500Z,58.10
2023-02-11T09:55:19.484Z,58.25
2023-02-11T09:56:19.508Z,58.38
2023-02-11T09:57:28.176Z,58.36
2023-02-11T09:58:19.457Z,58.40
2023-02-11T09:59:19.445Z,58.08
2023-02-11T10:00:19.448Z,58.28
2023-02-11T10:01:21.047Z,58.38
2023-02-11T10:02:19.404Z,58.23
2023-02-11T10:03:19.396Z,58.04
2023-02-11T10:04:19.476Z,57.92
2023-02-11T10:05:19.366Z,58.02
2023-02-11T10:06:19.352Z,58.28
2023-02-11T10:07:19.334Z,57.73
2023-02-11T10:08:19.350Z,57.31
2023-02-11T10:09:19.326Z,57.65
2023-02-11T10:10:19.291Z,57.49
2023-02-11T10:11:30.847Z,57.33
2023-02-11T10:12:19.273Z,56.69
2023-02-11T10:13:19.270Z,56.60
2023-02-11T10:14:25.745Z,56.50
2023-02-11T10:15:19.244Z,56.45
2023-02-11T10:16:19.232Z,56.21
2023-02-11T10:17:19.206Z,55.91
2023-02-11T10:18:19.190Z,55.92
2023-02-11T10:19:19.185Z,56.05
2023-02-11T10:20:19.172Z,55.88
2023-02-11T10:21:19.170Z,55.90
2023-02-11T10:22:19.147Z,56.19
2023-02-11T10:23:19.141Z,56.07
2023-02-11T10:24:19.119Z,56.36
2023-02-11T10:25:19.114Z,56.24
2023-02-11T10:26:19.099Z,56.26
2023-02-11T10:27:19.091Z,56.45
2023-02-11T10:28:19.166Z,56.32
2023-02-11T10:29:19.067Z,56.35
2023-02-11T10:30:19.048Z,56.27
2023-02-11T10:31:19.163Z,56.04
2023-02-11T10:32:19.019Z,55.80
2023-02-11T10:33:19.004Z,55.73
2023-02-11T10:34:18.994Z,55.33
2023-02-11T10:35:18.979Z,55.57
2023-02-11T10:36:18.965Z,55.61
2023-02-11T10:37:18.971Z,55.48
2023-02-11T10:38:18.947Z,55.72
2023-02-11T10:39:18.943Z,55.75
2023-02-11T10:40:18.930Z,55.43
2023-02-11T10:41:18.922Z,55.39
2023-02-11T10:42:18.892Z,55.55
2023-02-11T10:43:18.885Z,55.76
2023-02-11T10:44:18.870Z,55.65
2023-02-11T10:45:18.852Z,55.58
2023-02-11T10:46:18.875Z,54.92
2023-02-11T10:47:18.835Z,54.61
2023-02-11T10:48:18.805Z,54.44
2023-02-11T10:49:18.813Z,54.35
2023-02-11T10:50:18.882Z,54.21
2023-02-11T10:51:18.773Z,54.10
2023-02-11T10:52:18.813Z,54.26
2023-02-11T10:53:18.746Z,54.01
2023-02-11T10:54:18.736Z,53.82
2023-02-11T10:55:18.736Z,53.62
2023-02-11T10:56:18.717Z,53.51
2023-02-11T10:57:18.719Z,53.27
2023-02-11T10:58:18.690Z,52.94
2023-02-11T10:59:21.405Z,52.97
2023-02-11T11:00:18.755Z,52.63
2023-02-11T11:01:24.803Z,52.61
2023-02-11T11:02:18.640Z,52.93
2023-02-11T11:03:18.645Z,53.42
2023-02-11T11:04:18.631Z,53.46
2023-02-11T11:05:18.619Z,53.43
2023-02-11T11:06:18.584Z,53.29
2023-02-11T11:07:18.581Z,53.62
2023-02-11T11:08:18.572Z,53.47
2023-02-11T11:09:18.574Z,53.21
2023-02-11T11:10:18.539Z,53.31
2023-02-11T11:11:18.535Z,53.13
2023-02-11T11:12:18.512Z,53.26
2023-02-11T11:13:18.506Z,53.61
2023-02-11T11:14:18.476Z,53.91
2023-02-11T11:15:18.480Z,53.88
2023-02-11T11:16:18.538Z,53.59
2023-02-11T11:17:18.441Z,53.33
2023-02-11T11:18:22.590Z,53.00
2023-02-11T11:19:18.430Z,52.51
2023-02-11T11:20:18.405Z,52.57
2023-02-11T11:21:18.392Z,52.15
2023-02-11T11:22:18.378Z,52.05
2023-02-11T11:23:18.391Z,52.16
2023-02-11T11:24:18.357Z,52.56
2023-02-11T11:25:18.351Z,52.53
2023-02-11T11:26:18.348Z,52.16
2023-02-11T11:27:18.352Z,52.20
2023-02-11T11:28:18.330Z,52.41
2023-02-11T11:29:18.311Z,52.74
2023-02-11T11:30:18.279Z,53.07
2023-02-11T11:31:18.452Z,53.18
2023-02-11T11:32:20.281Z,53.02
2023-02-11T11:33:18.251Z,52.93
2023-02-11T11:34:18.226Z,52.91
2023-02-11T11:35:18.229Z,52.87
2023-02-11T11:36:18.245Z,52.84
2023-02-11T11:37:18.201Z,52.66
2023-02-11T11:38:18.178Z,52.49
2023-02-11T11:39:18.177Z,52.65
2023-02-11T11:40:18.148Z,52.35
2023-02-11T11:41:18.136Z,52.00
2023-02-11T11:42:18.121Z,51.71
2023-02-11T11:43:18.112Z,51.97
2023-02-11T11:44:18.114Z,51.81
2023-02-11T11:45:18.094Z,51.82
2023-02-11T11:46:18.081Z,51.81
2023-02-11T11:47:18.054Z,51.27
2023-02-11T11:48:18.043Z,51.32
2023-02-11T11:49:18.052Z,51.24
2023-02-11T11:50:20.765Z,51.33
2023-02-11T11:51:18.011Z,51.25
2023-02-11T11:52:17.985Z,51.19
2023-02-11T11:53:17.976Z,51.05
2023-02-11T11:54:17.966Z,51.06
2023-02-11T11:55:17.947Z,50.92
2023-02-11T11:56:17.950Z,50.85
2023-02-11T11:57:17.942Z,50.71
2023-02-11T11:58:17.936Z,50.89
2023-02-11T11:59:17.924Z,50.72
2023-02-11T12:00:17.906Z,50.49
2023-02-11T12:01:17.891Z,50.37
2023-02-11T12:02:17.941Z,50.01
2023-02-11T12:03:17.910Z,49.79
2023-02-11T12:04:17.860Z,50.08
2023-02-11T12:05:17.830Z,50.15
2023-02-11T12:06:17.832Z,50.07
2023-02-11T12:07:17.804Z,49.35
2023-02-11T12:08:17.832Z,48.80
2023-02-11T12:09:17.778Z,48.44
2023-02-11T12:10:17.777Z,47.61
2023-02-11T12:11:17.753Z,46.43
2023-02-11T12:12:17.758Z,45.67
2023-02-11T12:13:17.732Z,45.43
2023-02-11T12:14:17.716Z,44.98
2023-02-11T12:15:17.714Z,45.00
2023-02-11T12:16:17.715Z,45.14
2023-02-11T12:17:17.672Z,45.57
2023-02-11T12:18:17.660Z,45.81
2023-02-11T12:19:17.654Z,45.50
2023-02-11T12:20:17.636Z,45.45
2023-02-11T12:21:17.620Z,44.92
2023-02-11T12:22:17.616Z,44.70
2023-02-11T12:23:17.601Z,44.94
2023-02-11T12:24:17.625Z,44.75
2023-02-11T12:25:17.578Z,44.86
2023-02-11T12:26:17.573Z,44.71
2023-02-11T12:27:17.544Z,44.93
2023-02-11T12:28:17.574Z,45.11
2023-02-11T12:29:17.531Z,45.11
2023-02-11T12:30:17.536Z,45.34
2023-02-11T12:31:17.640Z,45.51
2023-02-11T12:32:17.592Z,45.61
2023-02-11T12:33:17.475Z,45.56
2023-02-11T12:34:17.459Z,45.18
2023-02-11T12:35:17.459Z,45.29
2023-02-11T12:36:17.439Z,45.33
2023-02-11T12:37:17.419Z,45.66
2023-02-11T12:38:17.401Z,45.67
2023-02-11T12:39:18.181Z,45.89
2023-02-11T12:40:17.384Z,45.75
2023-02-11T12:41:17.438Z,45.63
2023-02-11T12:42:17.354Z,45.57
2023-02-11T12:43:17.375Z,45.37
2023-02-11T12:44:17.349Z,45.20
2023-02-11T12:45:17.338Z,45.15
2023-02-11T12:46:17.458Z,45.39
2023-02-11T12:47:17.288Z,45.54
2023-02-11T12:48:17.318Z,45.77
2023-02-11T12:49:17.295Z,45.55
2023-02-11T12:50:18.206Z,45.09
2023-02-11T12:51:17.263Z,45.09
2023-02-11T12:52:17.228Z,45.21